createdAt,value
2022-12-15T00:00:51.483Z,48.03
2022-12-15T00:06:11.619Z,58.70
2022-12-15T00:11:31.843Z,47.50
2022-12-15T00:16:52.188Z,46.28
2022-12-15T00:22:12.432Z,49.22
2022-12-15T00:27:32.721Z,47.50
2022-12-15T00:32:53.432Z,46.65
2022-12-15T00:38:13.685Z,49.50
2022-12-15T00:43:15.249Z,48.58
2022-12-15T00:48:16.819Z,46.13
2022-12-15T00:53:38.897Z,44.80
2022-12-15T00:58:59.115Z,46.55
2022-12-15T01:04:19.435Z,44.45
2022-12-15T01:09:39.569Z,44.40
2022-12-15T01:14:59.904Z,47.25
2022-12-15T01:20:18.216Z,42.55
2022-12-15T01:25:22.054Z,40.10
2022-12-15T01:30:25.862Z,44.95
2022-12-15T01:35:27.802Z,46.25
2022-12-15T01:40:47.291Z,43.92
2022-12-15T01:45:53.362Z,44.67
2022-12-15T01:50:59.952Z,43.47
2022-12-15T01:56:05.119Z,46.38
2022-12-15T02:01:07.392Z,47.22
2022-12-15T02:06:11.430Z,48.50
2022-12-15T02:11:31.224Z,41.50
2022-12-15T02:16:42.100Z,44.70
2022-12-15T02:22:08.157Z,39.47
2022-12-15T02:27:22.922Z,42.67
2022-12-15T02:32:35.005Z,40.20
2022-12-15T02:37:39.383Z,42.30
2022-12-15T02:42:47.992Z,41.05
2022-12-15T02:48:06.794Z,38.10
2022-12-15T02:53:34.153Z,48.67
2022-12-15T02:58:54.678Z,44.80
2022-12-15T03:03:57.958Z,43.88
2022-12-15T03:08:59.628Z,45.40
2022-12-15T03:14:01.266Z,41.28
2022-12-15T03:19:02.831Z,44.95
2022-12-15T03:24:04.495Z,41.30
2022-12-15T03:29:06.074Z,43.78
2022-12-15T03:34:07.652Z,43.65
2022-12-15T03:39:09.250Z,38.63
2022-12-15T03:44:11.201Z,40.63
2022-12-15T03:49:12.869Z,43.03
2022-12-15T03:54:14.928Z,44.92
2022-12-15T03:59:16.495Z,37.78
2022-12-15T04:04:18.054Z,41.70
2022-12-15T04:09:19.613Z,43.10
2022-12-15T04:14:21.157Z,41.25
2022-12-15T04:19:41.862Z,41.33
2022-12-15T04:25:02.162Z,40.45
2022-12-15T04:30:22.852Z,39.95
2022-12-15T04:35:43.118Z,43.50
2022-12-15T04:41:09.933Z,40.20
2022-12-15T04:46:30.049Z,41.22
2022-12-15T04:51:52.381Z,45.50
2022-12-15T04:57:12.556Z,43.55
2022-12-15T05:02:32.909Z,41.75
2022-12-15T05:07:53.020Z,46.17
2022-12-15T05:13:13.245Z,39.45
2022-12-15T05:18:35.864Z,45.15
2022-12-15T05:23:56.075Z,42.25
2022-12-15T05:29:16.282Z,46.00
2022-12-15T05:34:29.336Z,48.28
2022-12-15T05:39:31.178Z,48.05
2022-12-15T05:44:32.923Z,46.90
2022-12-15T05:49:35.757Z,45.83
2022-12-15T05:54:37.459Z,51.88
2022-12-15T05:59:39.183Z,49.65
2022-12-15T06:04:43.476Z,48.65
2022-12-15T06:09:45.425Z,50.35
2022-12-15T06:14:47.098Z,55.65
2022-12-15T06:19:51.627Z,51.08
2022-12-15T06:24:53.183Z,48.95
2022-12-15T06:29:54.733Z,45.80
2022-12-15T06:34:56.281Z,46.80
2022-12-15T06:39:58.083Z,56.63
2022-12-15T06:44:59.722Z,51.33
2022-12-15T06:50:02.122Z,52.95
2022-12-15T06:55:03.968Z,52.10
2022-12-15T07:00:06.491Z,50.42
2022-12-15T07:05:09.307Z,49.17
2022-12-15T07:10:11.429Z,55.92
2022-12-15T07:15:13.366Z,48.10
2022-12-15T07:20:15.317Z,51.80
2022-12-15T07:25:16.962Z,57.95
2022-12-15T07:30:18.780Z,52.08
2022-12-15T07:35:20.330Z,52.97
2022-12-15T07:40:22.049Z,48.13
2022-12-15T07:45:23.744Z,51.30
2022-12-15T07:50:25.631Z,51.78
2022-12-15T07:55:50.203Z,49.90
2022-12-15T08:00:49.338Z,47.95
2022-12-15T08:05:50.944Z,44.83
2022-12-15T08:10:52.784Z,48.03
2022-12-15T08:15:55.083Z,49.85
2022-12-15T08:21:02.659Z,48.75
2022-12-15T08:26:07.737Z,49.30
2022-12-15T08:31:15.242Z,45.35
2022-12-15T08:36:18.973Z,53.75
2022-12-15T08:41:23.649Z,47.88
2022-12-15T08:46:29.566Z,51.50
2022-12-15T08:51:32.831Z,54.38
2022-12-15T08:56:36.082Z,47.60
2022-12-15T09:01:40.244Z,49.63
2022-12-15T09:06:42.081Z,49.38
2022-12-15T09:11:43.636Z,49.72
2022-12-15T09:16:45.379Z,54.60
2022-12-15T09:21:48.156Z,48.72
2022-12-15T09:26:50.101Z,47.95
2022-12-15T09:31:51.713Z,49.45
2022-12-15T09:36:56.818Z,49.80
2022-12-15T09:42:00.628Z,47.20
2022-12-15T09:47:30.363Z,48.33
2022-12-15T09:52:38.708Z,45.50
2022-12-15T09:57:50.024Z,48.10
2022-12-15T10:03:16.197Z,47.92
2022-12-15T10:08:20.633Z,48.55
2022-12-15T10:13:38.527Z,48.63
2022-12-15T10:19:32.769Z,50.40
2022-12-15T10:30:15.401Z,49.75
2022-12-15T10:35:21.961Z,46.03
2022-12-15T10:40:43.147Z,43.88
2022-12-15T10:45:44.754Z,55.05
2022-12-15T10:50:47.152Z,49.10
2022-12-15T10:56:00.376Z,49.45
2022-12-15T11:01:08.191Z,48.10
2022-12-15T11:06:19.718Z,49.55
2022-12-15T11:11:48.191Z,49.58
2022-12-15T11:16:58.108Z,54.38
2022-12-15T11:22:08.394Z,44.53
2022-12-15T11:27:20.925Z,45.35
2022-12-15T11:32:33.418Z,48.28
2022-12-15T11:37:39.395Z,49.78
2022-12-15T11:42:53.226Z,46.03
2022-12-15T11:48:01.210Z,45.05
2022-12-15T11:53:13.646Z,40.78
2022-12-15T11:58:37.076Z,46.25
2022-12-15T12:03:54.816Z,47.03
2022-12-15T12:09:04.675Z,46.25
2022-12-15T12:14:29.548Z,45.53
2022-12-15T12:19:37.850Z,47.55
2022-12-15T12:24:44.800Z,46.88
2022-12-15T12:29:57.560Z,43.95
2022-12-15T12:35:31.369Z,47.17
2022-12-15T12:40:40.800Z,45.78
2022-12-15T12:45:50.986Z,48.42
2022-12-15T12:51:09.485Z,50.33
2022-12-15T12:56:31.149Z,42.50
2022-12-15T13:01:34.785Z,45.28
2022-12-15T13:06:36.456Z,45.33
2022-12-15T13:11:53.029Z,44.83
2022-12-15T13:22:36.901Z,48.38
2022-12-15T13:27:40.723Z,46.40
2022-12-15T13:32:51.428Z,45.85
2022-12-15T13:37:56.281Z,47.67
2022-12-15T13:43:04.414Z,44.08
2022-12-15T13:48:29.900Z,45.53
2022-12-15T13:53:43.338Z,41.58
2022-12-15T13:58:50.796Z,45.40
2022-12-15T14:04:12.730Z,45.00
2022-12-15T14:09:16.944Z,47.42
2022-12-15T14:14:22.677Z,42.05
2022-12-15T14:19:24.511Z,44.85
2022-12-15T14:24:40.846Z,43.35
2022-12-15T14:29:42.624Z,47.88
2022-12-15T14:34:45.039Z,47.28
2022-12-15T14:39:58.230Z,46.10
2022-12-15T14:44:59.900Z,47.08
2022-12-15T14:50:03.491Z,44.92
2022-12-15T14:55:37.911Z,42.70
2022-12-15T15:00:50.670Z,45.33
2022-12-15T15:05:58.013Z,43.92
2022-12-15T15:11:34.136Z,46.95
2022-12-15T15:16:35.860Z,42.78
2022-12-15T15:21:37.715Z,41.35
2022-12-15T15:26:43.245Z,47.30
2022-12-15T15:31:45.092Z,44.33
2022-12-15T15:36:47.348Z,44.20
2022-12-15T15:41:48.959Z,46.00
2022-12-15T15:46:52.002Z,52.17
2022-12-15T15:51:56.027Z,52.88
2022-12-15T15:56:57.577Z,49.58
2022-12-15T16:01:59.821Z,53.35
2022-12-15T16:07:01.866Z,53.15
2022-12-15T16:12:03.722Z,56.35
2022-12-15T16:17:09.249Z,55.97
2022-12-15T16:22:18.221Z,53.72
2022-12-15T16:27:19.781Z,59.67
2022-12-15T16:32:21.531Z,55.00
2022-12-15T16:37:27.416Z,53.85
2022-12-15T16:42:28.938Z,55.08
2022-12-15T16:47:30.464Z,52.47
2022-12-15T16:52:32.286Z,58.05
2022-12-15T16:57:36.219Z,57.42
2022-12-15T17:02:38.733Z,54.33
2022-12-15T17:07:41.030Z,60.35
2022-12-15T17:12:43.458Z,59.15
2022-12-15T17:17:45.061Z,59.33
2022-12-15T17:22:50.268Z,53.35
2022-12-15T17:27:56.077Z,52.95
2022-12-15T17:32:57.852Z,52.28
2022-12-15T17:37:59.428Z,52.42
2022-12-15T17:43:00.996Z,49.08
2022-12-15T17:48:02.564Z,52.53
2022-12-15T17:53:05.698Z,51.95
2022-12-15T17:58:20.927Z,46.35
2022-12-15T18:03:26.307Z,49.47
2022-12-15T18:08:28.339Z,45.22
2022-12-15T18:13:35.259Z,46.25
2022-12-15T18:18:37.230Z,47.15
2022-12-15T18:23:38.770Z,48.67
2022-12-15T18:28:40.854Z,46.05
2022-12-15T18:33:44.447Z,46.70
2022-12-15T18:38:46.051Z,47.45
2022-12-15T18:43:47.808Z,46.63
2022-12-15T18:48:49.348Z,48.55
2022-12-15T18:53:51.378Z,44.95
2022-12-15T18:58:52.967Z,48.15
2022-12-15T19:03:54.496Z,44.63
2022-12-15T19:08:56.132Z,44.35
2022-12-15T19:13:59.315Z,45.30
2022-12-15T19:19:19.460Z,46.88
2022-12-15T19:24:45.973Z,46.92
2022-12-15T19:29:48.248Z,46.65
2022-12-15T19:34:50.232Z,47.20
2022-12-15T19:39:53.115Z,43.97
2022-12-15T19:44:54.637Z,42.22
2022-12-15T19:49:56.245Z,47.28
2022-12-15T19:54:57.874Z,45.67
2022-12-15T19:59:59.402Z,45.33
2022-12-15T20:05:03.316Z,44.38
2022-12-15T20:10:22.039Z,44.15
2022-12-15T20:15:26.356Z,43.38
2022-12-15T20:20:29.201Z,37.83
2022-12-15T20:25:34.501Z,42.70
2022-12-15T20:30:36.039Z,48.67
2022-12-15T20:35:37.876Z,39.47
2022-12-15T20:40:39.510Z,39.03
2022-12-15T20:45:41.575Z,41.20
2022-12-15T20:50:48.184Z,41.65
2022-12-15T20:55:53.375Z,43.38
2022-12-15T21:00:54.990Z,38.58
2022-12-15T21:05:58.653Z,42.20
2022-12-15T21:11:20.551Z,36.65
2022-12-15T21:16:26.055Z,33.83
2022-12-15T21:21:31.402Z,35.58
2022-12-15T21:26:33.160Z,34.95
2022-12-15T21:31:34.731Z,35.55
2022-12-15T21:36:37.722Z,34.55
2022-12-15T21:41:42.886Z,37.40
2022-12-15T21:46:44.468Z,33.70
2022-12-15T21:51:56.810Z,35.92
2022-12-15T21:57:02.797Z,36.13
2022-12-15T22:02:26.154Z,36.50
2022-12-15T22:07:27.786Z,40.17
2022-12-15T22:12:29.351Z,38.33
2022-12-15T22:17:32.313Z,41.75
2022-12-15T22:22:33.830Z,39.08
2022-12-15T22:27:35.372Z,34.72
2022-12-15T22:32:36.920Z,39.10
2022-12-15T22:37:38.449Z,40.15
2022-12-15T22:42:44.104Z,32.72
2022-12-15T22:47:49.572Z,37.10
2022-12-15T22:58:23.711Z,38.58
2022-12-15T23:03:29.463Z,38.72
2022-12-15T23:08:33.997Z,39.47
2022-12-15T23:13:35.661Z,36.40
2022-12-15T23:18:37.306Z,38.75
2022-12-15T23:23:38.869Z,37.53
2022-12-15T23:28:41.193Z,39.45
2022-12-15T23:33:42.719Z,35.85
2022-12-15T23:38:44.727Z,40.78
2022-12-15T23:43:46.459Z,39.55
2022-12-15T23:48:48.028Z,39.00
2022-12-15T23:53:49.681Z,43.33
2022-12-15T23:58:59.713Z,40.17
